CTF4 weather

Dundalk (Tripp Field)
Ontario, Canada

Public forecast

Using degrees Celsius for public forecast. Weather courtesy of forecast.io.

METAR (pilot weather report)

Closest report is CFB Borden, 18.0 nm (33.3 km) ENE. Retrieved 2019/07/21 18:00 UTC (36 minutes ago):

CYBN 211800Z AUTO 33010G16KT 300V010 9SM CLR 27/14 A2990 RMK SLP122

TAF (pilot weather forecast)

Forecast is more than 12 hours old.

Closest forecast is CFB Borden, 18.0 nm (33.3 km) ENE. Retrieved 2019/07/19 18:33 UTC (2 days ago):

TAF TAF CYBN 191730Z 1918/2006 23010KT P6SM SCT020 SCT040 BKN100 TEMPO 1918/1924 5SM -SHRA BR BKN020 OVC040 PROB30 1918/1924 1SM TSRA BR BKN020 OVC040CB FM200000 24008KT P6SM SCT020 BKN040 BECMG 2002/2004 22005KT FEW020 RMK FCST BASED ON AUTO OBS. NXT FCST BY 200000Z